sensor_id;sensor_type;location;lat;lon;timestamp;P1;durP1;ratioP1;P2;durP2;ratioP2
10007;SDS011;5043;41.766;26.204;2022-10-28T00:01:17;8.70;;;4.63;;
10007;SDS011;5043;41.766;26.204;2022-10-28T00:03:50;8.05;;;4.80;;
10007;SDS011;5043;41.766;26.204;2022-10-28T00:06:18;7.85;;;5.18;;
10007;SDS011;5043;41.766;26.204;2022-10-28T00:08:49;5.10;;;4.15;;
10007;SDS011;5043;41.766;26.204;2022-10-28T00:11:15;4.68;;;4.22;;
10007;SDS011;5043;41.766;26.204;2022-10-28T00:13:46;6.93;;;3.72;;
10007;SDS011;5043;41.766;26.204;2022-10-28T00:16:19;9.23;;;3.90;;
10007;SDS011;5043;41.766;26.204;2022-10-28T00:18:47;9.25;;;4.95;;
10007;SDS011;5043;41.766;26.204;2022-10-28T00:21:14;5.57;;;4.03;;
10007;SDS011;5043;41.766;26.204;2022-10-28T00:23:41;5.68;;;4.70;;
10007;SDS011;5043;41.766;26.204;2022-10-28T00:26:10;5.43;;;4.43;;
10007;SDS011;5043;41.766;26.204;2022-10-28T00:28:41;10.15;;;4.43;;
10007;SDS011;5043;41.766;26.204;2022-10-28T00:31:09;5.78;;;4.40;;
10007;SDS011;5043;41.766;26.204;2022-10-28T00:33:36;4.93;;;4.32;;
10007;SDS011;5043;41.766;26.204;2022-10-28T00:38:37;15.10;;;4.88;;
10007;SDS011;5043;41.766;26.204;2022-10-28T00:41:02;9.55;;;4.35;;
10007;SDS011;5043;41.766;26.204;2022-10-28T00:43:39;7.80;;;4.53;;
10007;SDS011;5043;41.766;26.204;2022-10-28T00:46:14;4.63;;;4.05;;
10007;SDS011;5043;41.766;26.204;2022-10-28T00:48:47;6.40;;;4.20;;
10007;SDS011;5043;41.766;26.204;2022-10-28T00:51:16;4.97;;;4.05;;
10007;SDS011;5043;41.766;26.204;2022-10-28T00:53:45;4.68;;;3.78;;
10007;SDS011;5043;41.766;26.204;2022-10-28T00:56:12;8.35;;;3.95;;
10007;SDS011;5043;41.766;26.204;2022-10-28T00:58:39;8.60;;;4.10;;
10007;SDS011;5043;41.766;26.204;2022-10-28T01:01:05;5.35;;;3.97;;
10007;SDS011;5043;41.766;26.204;2022-10-28T01:03:31;6.80;;;4.60;;
10007;SDS011;5043;41.766;26.204;2022-10-28T01:05:56;10.65;;;5.00;;
10007;SDS011;5043;41.766;26.204;2022-10-28T01:08:22;12.32;;;4.30;;
10007;SDS011;5043;41.766;26.204;2022-10-28T01:13:50;4.53;;;4.00;;
10007;SDS011;5043;41.766;26.204;2022-10-28T01:20:03;5.10;;;3.50;;
10007;SDS011;5043;41.766;26.204;2022-10-28T01:22:28;5.43;;;4.35;;
10007;SDS011;5043;41.766;26.204;2022-10-28T01:25:15;6.45;;;5.32;;
10007;SDS011;5043;41.766;26.204;2022-10-28T01:30:13;9.27;;;6.28;;
10007;SDS011;5043;41.766;26.204;2022-10-28T01:40:57;6.95;;;4.78;;
10007;SDS011;5043;41.766;26.204;2022-10-28T01:43:52;9.65;;;6.22;;
10007;SDS011;5043;41.766;26.204;2022-10-28T01:46:24;10.00;;;5.00;;
10007;SDS011;5043;41.766;26.204;2022-10-28T01:48:56;7.93;;;4.72;;
10007;SDS011;5043;41.766;26.204;2022-10-28T01:51:37;12.52;;;5.18;;
10007;SDS011;5043;41.766;26.204;2022-10-28T01:54:10;7.60;;;5.05;;
10007;SDS011;5043;41.766;26.204;2022-10-28T01:56:39;5.60;;;4.82;;
10007;SDS011;5043;41.766;26.204;2022-10-28T01:59:09;8.25;;;6.30;;
10007;SDS011;5043;41.766;26.204;2022-10-28T02:01:39;8.85;;;7.50;;
10007;SDS011;5043;41.766;26.204;2022-10-28T02:04:04;11.07;;;8.48;;
10007;SDS011;5043;41.766;26.204;2022-10-28T02:06:30;12.52;;;6.72;;
10007;SDS011;5043;41.766;26.204;2022-10-28T02:17:37;13.88;;;7.63;;
10007;SDS011;5043;41.766;26.204;2022-10-28T02:22:40;10.85;;;6.15;;
10007;SDS011;5043;41.766;26.204;2022-10-28T02:27:36;9.80;;;4.82;;
10007;SDS011;5043;41.766;26.204;2022-10-28T02:30:06;11.00;;;5.10;;
10007;SDS011;5043;41.766;26.204;2022-10-28T02:32:36;6.35;;;5.22;;
10007;SDS011;5043;41.766;26.204;2022-10-28T02:35:06;7.80;;;5.20;;
10007;SDS011;5043;41.766;26.204;2022-10-28T02:37:38;7.22;;;5.35;;
10007;SDS011;5043;41.766;26.204;2022-10-28T02:40:07;6.18;;;4.82;;
10007;SDS011;5043;41.766;26.204;2022-10-28T02:42:42;6.18;;;4.75;;
10007;SDS011;5043;41.766;26.204;2022-10-28T02:45:14;7.88;;;4.68;;
10007;SDS011;5043;41.766;26.204;2022-10-28T02:47:59;7.45;;;5.25;;
10007;SDS011;5043;41.766;26.204;2022-10-28T02:50:35;7.95;;;5.25;;
10007;SDS011;5043;41.766;26.204;2022-10-28T02:53:07;11.38;;;7.18;;
10007;SDS011;5043;41.766;26.204;2022-10-28T02:55:39;8.00;;;5.85;;
10007;SDS011;5043;41.766;26.204;2022-10-28T02:58:08;6.80;;;5.93;;
10007;SDS011;5043;41.766;26.204;2022-10-28T03:00:35;7.30;;;4.80;;
10007;SDS011;5043;41.766;26.204;2022-10-28T03:03:00;8.05;;;5.60;;
10007;SDS011;5043;41.766;26.204;2022-10-28T03:05:26;10.35;;;5.47;;
10007;SDS011;5043;41.766;26.204;2022-10-28T03:07:51;7.80;;;5.65;;
10007;SDS011;5043;41.766;26.204;2022-10-28T03:10:16;10.13;;;5.25;;
10007;SDS011;5043;41.766;26.204;2022-10-28T03:12:42;5.47;;;4.90;;
10007;SDS011;5043;41.766;26.204;2022-10-28T03:15:07;9.40;;;5.65;;
10007;SDS011;5043;41.766;26.204;2022-10-28T03:17:33;8.77;;;5.82;;
10007;SDS011;5043;41.766;26.204;2022-10-28T03:19:58;8.05;;;5.22;;
10007;SDS011;5043;41.766;26.204;2022-10-28T03:22:24;8.57;;;5.65;;
10007;SDS011;5043;41.766;26.204;2022-10-28T03:24:50;5.93;;;5.32;;
10007;SDS011;5043;41.766;26.204;2022-10-28T03:27:15;9.85;;;5.80;;
10007;SDS011;5043;41.766;26.204;2022-10-28T03:29:40;8.50;;;6.18;;
10007;SDS011;5043;41.766;26.204;2022-10-28T03:32:06;6.57;;;5.90;;
10007;SDS011;5043;41.766;26.204;2022-10-28T03:34:31;6.30;;;5.05;;
10007;SDS011;5043;41.766;26.204;2022-10-28T03:36:57;10.73;;;5.78;;
10007;SDS011;5043;41.766;26.204;2022-10-28T03:39:22;10.02;;;5.18;;
10007;SDS011;5043;41.766;26.204;2022-10-28T03:41:48;12.60;;;5.70;;
10007;SDS011;5043;41.766;26.204;2022-10-28T03:44:13;7.85;;;4.93;;
10007;SDS011;5043;41.766;26.204;2022-10-28T03:46:39;7.03;;;5.75;;
10007;SDS011;5043;41.766;26.204;2022-10-28T03:49:04;8.73;;;6.13;;
10007;SDS011;5043;41.766;26.204;2022-10-28T03:51:29;9.02;;;5.28;;
10007;SDS011;5043;41.766;26.204;2022-10-28T03:53:55;6.55;;;5.13;;
10007;SDS011;5043;41.766;26.204;2022-10-28T03:56:20;7.43;;;5.47;;
10007;SDS011;5043;41.766;26.204;2022-10-28T03:58:46;7.53;;;5.38;;
10007;SDS011;5043;41.766;26.204;2022-10-28T04:01:12;7.03;;;5.63;;
10007;SDS011;5043;41.766;26.204;2022-10-28T04:03:38;7.93;;;5.90;;
10007;SDS011;5043;41.766;26.204;2022-10-28T04:06:03;7.43;;;5.68;;
10007;SDS011;5043;41.766;26.204;2022-10-28T04:08:29;7.38;;;5.20;;
10007;SDS011;5043;41.766;26.204;2022-10-28T04:10:54;7.50;;;6.03;;
10007;SDS011;5043;41.766;26.204;2022-10-28T04:13:20;5.78;;;4.60;;
10007;SDS011;5043;41.766;26.204;2022-10-28T04:15:45;6.93;;;5.03;;
10007;SDS011;5043;41.766;26.204;2022-10-28T04:18:11;6.70;;;5.32;;
10007;SDS011;5043;41.766;26.204;2022-10-28T04:20:36;8.98;;;5.85;;
10007;SDS011;5043;41.766;26.204;2022-10-28T04:23:02;11.68;;;5.85;;
10007;SDS011;5043;41.766;26.204;2022-10-28T04:25:27;9.05;;;6.43;;
10007;SDS011;5043;41.766;26.204;2022-10-28T04:27:53;8.60;;;6.53;;
10007;SDS011;5043;41.766;26.204;2022-10-28T04:30:19;12.77;;;7.05;;
10007;SDS011;5043;41.766;26.204;2022-10-28T04:32:44;10.70;;;6.72;;
10007;SDS011;5043;41.766;26.204;2022-10-28T04:35:10;14.43;;;6.95;;
10007;SDS011;5043;41.766;26.204;2022-10-28T04:37:37;14.18;;;6.70;;
10007;SDS011;5043;41.766;26.204;2022-10-28T04:40:03;9.43;;;6.55;;
10007;SDS011;5043;41.766;26.204;2022-10-28T04:42:30;12.52;;;6.30;;
10007;SDS011;5043;41.766;26.204;2022-10-28T04:44:55;10.52;;;7.63;;
10007;SDS011;5043;41.766;26.204;2022-10-28T04:47:21;10.25;;;8.30;;
10007;SDS011;5043;41.766;26.204;2022-10-28T04:49:46;10.30;;;8.07;;
10007;SDS011;5043;41.766;26.204;2022-10-28T04:52:11;13.13;;;8.75;;
10007;SDS011;5043;41.766;26.204;2022-10-28T04:54:37;12.93;;;9.02;;
10007;SDS011;5043;41.766;26.204;2022-10-28T04:57:02;20.25;;;10.10;;
10007;SDS011;5043;41.766;26.204;2022-10-28T04:59:28;15.32;;;10.50;;
10007;SDS011;5043;41.766;26.204;2022-10-28T05:01:53;12.88;;;10.50;;
10007;SDS011;5043;41.766;26.204;2022-10-28T05:04:19;16.95;;;11.10;;
10007;SDS011;5043;41.766;26.204;2022-10-28T05:06:45;13.88;;;9.13;;
10007;SDS011;5043;41.766;26.204;2022-10-28T05:09:10;14.57;;;9.15;;
10007;SDS011;5043;41.766;26.204;2022-10-28T05:11:36;16.23;;;9.30;;
10007;SDS011;5043;41.766;26.204;2022-10-28T05:14:01;16.23;;;9.23;;
10007;SDS011;5043;41.766;26.204;2022-10-28T05:16:27;13.15;;;8.75;;
10007;SDS011;5043;41.766;26.204;2022-10-28T05:18:52;14.05;;;9.90;;
10007;SDS011;5043;41.766;26.204;2022-10-28T05:21:18;14.30;;;10.38;;
10007;SDS011;5043;41.766;26.204;2022-10-28T05:23:43;15.77;;;10.07;;
10007;SDS011;5043;41.766;26.204;2022-10-28T05:26:09;14.55;;;10.05;;
10007;SDS011;5043;41.766;26.204;2022-10-28T05:28:34;14.02;;;9.80;;
10007;SDS011;5043;41.766;26.204;2022-10-28T05:30:59;13.25;;;9.32;;
10007;SDS011;5043;41.766;26.204;2022-10-28T05:33:25;12.82;;;9.57;;
10007;SDS011;5043;41.766;26.204;2022-10-28T05:35:50;13.48;;;9.52;;
10007;SDS011;5043;41.766;26.204;2022-10-28T05:38:16;15.93;;;9.63;;
10007;SDS011;5043;41.766;26.204;2022-10-28T05:40:42;16.40;;;8.20;;
10007;SDS011;5043;41.766;26.204;2022-10-28T05:43:08;16.00;;;8.85;;
10007;SDS011;5043;41.766;26.204;2022-10-28T05:45:34;12.27;;;8.45;;
10007;SDS011;5043;41.766;26.204;2022-10-28T05:48:00;15.25;;;8.32;;
10007;SDS011;5043;41.766;26.204;2022-10-28T05:50:25;13.32;;;8.90;;
10007;SDS011;5043;41.766;26.204;2022-10-28T05:52:52;13.57;;;8.75;;
10007;SDS011;5043;41.766;26.204;2022-10-28T05:55:19;19.70;;;9.35;;
10007;SDS011;5043;41.766;26.204;2022-10-28T05:57:46;13.98;;;8.68;;
10007;SDS011;5043;41.766;26.204;2022-10-28T06:00:13;15.10;;;9.10;;
10007;SDS011;5043;41.766;26.204;2022-10-28T06:02:40;11.80;;;9.07;;
10007;SDS011;5043;41.766;26.204;2022-10-28T06:05:06;13.88;;;8.82;;
10007;SDS011;5043;41.766;26.204;2022-10-28T06:07:32;14.68;;;10.15;;
10007;SDS011;5043;41.766;26.204;2022-10-28T06:09:59;14.40;;;9.27;;
10007;SDS011;5043;41.766;26.204;2022-10-28T06:12:24;17.05;;;10.10;;
10007;SDS011;5043;41.766;26.204;2022-10-28T06:14:50;12.02;;;8.93;;
10007;SDS011;5043;41.766;26.204;2022-10-28T06:17:15;16.42;;;10.20;;
10007;SDS011;5043;41.766;26.204;2022-10-28T06:19:41;16.30;;;9.68;;
10007;SDS011;5043;41.766;26.204;2022-10-28T06:22:06;13.77;;;9.30;;
10007;SDS011;5043;41.766;26.204;2022-10-28T06:24:31;15.27;;;9.85;;
10007;SDS011;5043;41.766;26.204;2022-10-28T06:26:57;13.82;;;9.38;;
10007;SDS011;5043;41.766;26.204;2022-10-28T06:29:22;16.20;;;9.85;;
10007;SDS011;5043;41.766;26.204;2022-10-28T06:31:48;18.42;;;11.07;;
10007;SDS011;5043;41.766;26.204;2022-10-28T06:34:13;16.13;;;10.40;;
10007;SDS011;5043;41.766;26.204;2022-10-28T06:36:39;20.50;;;10.80;;
10007;SDS011;5043;41.766;26.204;2022-10-28T06:39:04;23.83;;;11.48;;
10007;SDS011;5043;41.766;26.204;2022-10-28T06:41:31;20.52;;;11.25;;
10007;SDS011;5043;41.766;26.204;2022-10-28T06:43:56;21.23;;;11.20;;
10007;SDS011;5043;41.766;26.204;2022-10-28T06:46:21;19.67;;;10.85;;
10007;SDS011;5043;41.766;26.204;2022-10-28T06:48:47;23.15;;;11.65;;
10007;SDS011;5043;41.766;26.204;2022-10-28T06:51:12;23.13;;;12.25;;
10007;SDS011;5043;41.766;26.204;2022-10-28T06:53:40;23.20;;;12.15;;
10007;SDS011;5043;41.766;26.204;2022-10-28T06:56:05;26.23;;;12.75;;
10007;SDS011;5043;41.766;26.204;2022-10-28T06:58:31;21.45;;;11.55;;
10007;SDS011;5043;41.766;26.204;2022-10-28T07:01:01;28.15;;;12.73;;
10007;SDS011;5043;41.766;26.204;2022-10-28T07:03:29;25.02;;;11.80;;
10007;SDS011;5043;41.766;26.204;2022-10-28T07:05:54;23.48;;;12.88;;
10007;SDS011;5043;41.766;26.204;2022-10-28T07:08:19;21.48;;;11.85;;
10007;SDS011;5043;41.766;26.204;2022-10-28T07:10:52;25.20;;;11.55;;
10007;SDS011;5043;41.766;26.204;2022-10-28T07:13:18;25.02;;;11.32;;
10007;SDS011;5043;41.766;26.204;2022-10-28T07:15:44;23.70;;;10.88;;
10007;SDS011;5043;41.766;26.204;2022-10-28T07:18:09;20.38;;;10.68;;
10007;SDS011;5043;41.766;26.204;2022-10-28T07:20:34;18.50;;;10.82;;
10007;SDS011;5043;41.766;26.204;2022-10-28T07:23:00;16.55;;;9.85;;
10007;SDS011;5043;41.766;26.204;2022-10-28T07:25:29;13.07;;;9.55;;
10007;SDS011;5043;41.766;26.204;2022-10-28T07:27:56;16.85;;;10.07;;
10007;SDS011;5043;41.766;26.204;2022-10-28T07:30:22;14.30;;;10.27;;
10007;SDS011;5043;41.766;26.204;2022-10-28T07:32:48;12.55;;;9.70;;
10007;SDS011;5043;41.766;26.204;2022-10-28T07:35:13;12.00;;;8.93;;
10007;SDS011;5043;41.766;26.204;2022-10-28T07:37:39;12.30;;;9.45;;
10007;SDS011;5043;41.766;26.204;2022-10-28T07:40:05;19.50;;;10.15;;
10007;SDS011;5043;41.766;26.204;2022-10-28T07:42:34;11.98;;;9.20;;
10007;SDS011;5043;41.766;26.204;2022-10-28T07:44:59;13.50;;;9.18;;
10007;SDS011;5043;41.766;26.204;2022-10-28T07:47:25;11.18;;;9.38;;
10007;SDS011;5043;41.766;26.204;2022-10-28T07:49:50;13.10;;;9.82;;
10007;SDS011;5043;41.766;26.204;2022-10-28T07:52:18;12.27;;;10.25;;
10007;SDS011;5043;41.766;26.204;2022-10-28T07:54:44;15.52;;;11.35;;
10007;SDS011;5043;41.766;26.204;2022-10-28T07:57:09;12.23;;;9.15;;
10007;SDS011;5043;41.766;26.204;2022-10-28T07:59:35;10.48;;;8.75;;
10007;SDS011;5043;41.766;26.204;2022-10-28T08:02:00;13.80;;;10.02;;
10007;SDS011;5043;41.766;26.204;2022-10-28T08:04:28;11.80;;;9.65;;
10007;SDS011;5043;41.766;26.204;2022-10-28T08:06:54;14.88;;;10.75;;
10007;SDS011;5043;41.766;26.204;2022-10-28T08:09:19;14.90;;;9.40;;
10007;SDS011;5043;41.766;26.204;2022-10-28T08:11:45;15.68;;;10.77;;
10007;SDS011;5043;41.766;26.204;2022-10-28T08:14:10;15.85;;;11.30;;
10007;SDS011;5043;41.766;26.204;2022-10-28T08:16:36;16.70;;;11.80;;
10007;SDS011;5043;41.766;26.204;2022-10-28T08:19:01;16.88;;;11.00;;
10007;SDS011;5043;41.766;26.204;2022-10-28T08:21:26;18.38;;;11.43;;
10007;SDS011;5043;41.766;26.204;2022-10-28T08:23:52;18.20;;;12.90;;
10007;SDS011;5043;41.766;26.204;2022-10-28T08:26:18;21.10;;;12.27;;
10007;SDS011;5043;41.766;26.204;2022-10-28T08:28:44;19.58;;;13.57;;
10007;SDS011;5043;41.766;26.204;2022-10-28T08:31:09;19.95;;;14.05;;
10007;SDS011;5043;41.766;26.204;2022-10-28T08:33:37;18.48;;;12.30;;
10007;SDS011;5043;41.766;26.204;2022-10-28T08:36:05;21.02;;;14.32;;
10007;SDS011;5043;41.766;26.204;2022-10-28T08:38:31;27.60;;;14.55;;
10007;SDS011;5043;41.766;26.204;2022-10-28T08:47:01;20.20;;;12.38;;
10007;SDS011;5043;41.766;26.204;2022-10-28T08:49:17;18.15;;;11.93;;
10007;SDS011;5043;41.766;26.204;2022-10-28T08:54:29;43.00;;;15.05;;
10007;SDS011;5043;41.766;26.204;2022-10-28T08:56:59;17.42;;;12.15;;
10007;SDS011;5043;41.766;26.204;2022-10-28T08:59:31;15.43;;;11.25;;
10007;SDS011;5043;41.766;26.204;2022-10-28T09:02:44;15.23;;;12.20;;
10007;SDS011;5043;41.766;26.204;2022-10-28T09:07:48;20.70;;;11.55;;
10007;SDS011;5043;41.766;26.204;2022-10-28T09:10:15;11.93;;;10.48;;
10007;SDS011;5043;41.766;26.204;2022-10-28T09:17:54;15.25;;;11.27;;
10007;SDS011;5043;41.766;26.204;2022-10-28T09:23:09;13.95;;;11.07;;
10007;SDS011;5043;41.766;26.204;2022-10-28T09:28:36;12.23;;;10.10;;
10007;SDS011;5043;41.766;26.204;2022-10-28T09:31:25;11.63;;;9.57;;
10007;SDS011;5043;41.766;26.204;2022-10-28T09:36:51;14.70;;;10.10;;
10007;SDS011;5043;41.766;26.204;2022-10-28T09:39:30;11.25;;;9.90;;
10007;SDS011;5043;41.766;26.204;2022-10-28T09:42:03;11.52;;;9.05;;
10007;SDS011;5043;41.766;26.204;2022-10-28T09:47:22;10.20;;;7.40;;
10007;SDS011;5043;41.766;26.204;2022-10-28T09:49:54;9.18;;;7.93;;
10007;SDS011;5043;41.766;26.204;2022-10-28T09:53:08;10.32;;;8.15;;
10007;SDS011;5043;41.766;26.204;2022-10-28T09:55:23;11.18;;;7.93;;
10007;SDS011;5043;41.766;26.204;2022-10-28T09:57:49;9.68;;;7.80;;
10007;SDS011;5043;41.766;26.204;2022-10-28T10:00:15;12.15;;;9.00;;
10007;SDS011;5043;41.766;26.204;2022-10-28T10:02:41;10.45;;;8.60;;
10007;SDS011;5043;41.766;26.204;2022-10-28T10:05:12;11.38;;;8.02;;
10007;SDS011;5043;41.766;26.204;2022-10-28T10:07:41;13.65;;;9.57;;
10007;SDS011;5043;41.766;26.204;2022-10-28T10:10:18;11.35;;;9.02;;
10007;SDS011;5043;41.766;26.204;2022-10-28T10:12:50;10.77;;;8.05;;
10007;SDS011;5043;41.766;26.204;2022-10-28T10:18:16;8.27;;;6.57;;
10007;SDS011;5043;41.766;26.204;2022-10-28T10:20:50;9.93;;;7.25;;
10007;SDS011;5043;41.766;26.204;2022-10-28T10:23:27;10.32;;;7.30;;
10007;SDS011;5043;41.766;26.204;2022-10-28T10:26:03;10.20;;;7.40;;
10007;SDS011;5043;41.766;26.204;2022-10-28T10:28:30;8.70;;;7.40;;
10007;SDS011;5043;41.766;26.204;2022-10-28T10:30:59;7.90;;;6.22;;
10007;SDS011;5043;41.766;26.204;2022-10-28T10:33:36;8.55;;;7.55;;
10007;SDS011;5043;41.766;26.204;2022-10-28T10:36:13;8.23;;;6.88;;
10007;SDS011;5043;41.766;26.204;2022-10-28T10:38:51;8.63;;;7.13;;
10007;SDS011;5043;41.766;26.204;2022-10-28T10:41:37;9.35;;;6.82;;
10007;SDS011;5043;41.766;26.204;2022-10-28T10:46:44;8.57;;;6.00;;
10007;SDS011;5043;41.766;26.204;2022-10-28T10:49:11;8.45;;;5.88;;
10007;SDS011;5043;41.766;26.204;2022-10-28T10:51:39;8.48;;;5.75;;
10007;SDS011;5043;41.766;26.204;2022-10-28T10:54:14;7.93;;;5.80;;
10007;SDS011;5043;41.766;26.204;2022-10-28T10:56:40;6.50;;;5.90;;
10007;SDS011;5043;41.766;26.204;2022-10-28T10:59:14;5.88;;;4.47;;
10007;SDS011;5043;41.766;26.204;2022-10-28T11:01:47;5.30;;;4.72;;
10007;SDS011;5043;41.766;26.204;2022-10-28T11:04:19;6.25;;;4.78;;
10007;SDS011;5043;41.766;26.204;2022-10-28T11:06:50;8.25;;;4.75;;
10007;SDS011;5043;41.766;26.204;2022-10-28T11:09:28;5.55;;;4.43;;
10007;SDS011;5043;41.766;26.204;2022-10-28T11:11:58;6.03;;;4.32;;
10007;SDS011;5043;41.766;26.204;2022-10-28T11:14:27;5.25;;;3.95;;
10007;SDS011;5043;41.766;26.204;2022-10-28T11:16:56;6.88;;;3.70;;
10007;SDS011;5043;41.766;26.204;2022-10-28T11:19:28;4.50;;;3.70;;
10007;SDS011;5043;41.766;26.204;2022-10-28T11:24:43;5.63;;;3.80;;
10007;SDS011;5043;41.766;26.204;2022-10-28T11:27:18;7.35;;;3.70;;
10007;SDS011;5043;41.766;26.204;2022-10-28T11:29:54;9.60;;;3.45;;
10007;SDS011;5043;41.766;26.204;2022-10-28T11:41:01;3.25;;;2.90;;
10007;SDS011;5043;41.766;26.204;2022-10-28T11:49:13;12.57;;;6.05;;
10007;SDS011;5043;41.766;26.204;2022-10-28T11:52:14;3.53;;;3.13;;
10007;SDS011;5043;41.766;26.204;2022-10-28T11:57:14;5.25;;;2.80;;
10007;SDS011;5043;41.766;26.204;2022-10-28T12:07:26;9.18;;;3.20;;
10007;SDS011;5043;41.766;26.204;2022-10-28T12:15:54;3.47;;;2.53;;
10007;SDS011;5043;41.766;26.204;2022-10-28T12:21:11;3.33;;;3.03;;
10007;SDS011;5043;41.766;26.204;2022-10-28T12:23:38;4.13;;;2.90;;
10007;SDS011;5043;41.766;26.204;2022-10-28T12:26:06;2.90;;;2.67;;
10007;SDS011;5043;41.766;26.204;2022-10-28T12:28:40;3.28;;;2.70;;
10007;SDS011;5043;41.766;26.204;2022-10-28T12:31:28;4.88;;;3.20;;
10007;SDS011;5043;41.766;26.204;2022-10-28T12:34:00;4.63;;;2.20;;
10007;SDS011;5043;41.766;26.204;2022-10-28T12:36:36;2.67;;;1.90;;
10007;SDS011;5043;41.766;26.204;2022-10-28T12:44:24;2.90;;;1.50;;
10007;SDS011;5043;41.766;26.204;2022-10-28T12:47:01;3.03;;;2.42;;
10007;SDS011;5043;41.766;26.204;2022-10-28T12:49:52;4.55;;;2.00;;
10007;SDS011;5043;41.766;26.204;2022-10-28T12:57:26;4.78;;;2.22;;
10007;SDS011;5043;41.766;26.204;2022-10-28T12:59:58;4.13;;;2.33;;
10007;SDS011;5043;41.766;26.204;2022-10-28T13:03:00;2.58;;;1.80;;
10007;SDS011;5043;41.766;26.204;2022-10-28T13:08:59;2.45;;;1.60;;
10007;SDS011;5043;41.766;26.204;2022-10-28T13:19:58;3.00;;;2.00;;
10007;SDS011;5043;41.766;26.204;2022-10-28T13:28:11;2.33;;;1.65;;
10007;SDS011;5043;41.766;26.204;2022-10-28T13:30:57;4.75;;;2.00;;
10007;SDS011;5043;41.766;26.204;2022-10-28T13:33:25;1.98;;;1.88;;
10007;SDS011;5043;41.766;26.204;2022-10-28T13:35:53;2.67;;;1.92;;
10007;SDS011;5043;41.766;26.204;2022-10-28T13:38:31;2.65;;;1.80;;
10007;SDS011;5043;41.766;26.204;2022-10-28T13:43:58;6.43;;;3.20;;
10007;SDS011;5043;41.766;26.204;2022-10-28T13:49:25;9.90;;;2.38;;
10007;SDS011;5043;41.766;26.204;2022-10-28T13:54:51;2.00;;;1.90;;
10007;SDS011;5043;41.766;26.204;2022-10-28T13:59:57;10.07;;;5.97;;
10007;SDS011;5043;41.766;26.204;2022-10-28T14:02:39;29.88;;;15.82;;
10007;SDS011;5043;41.766;26.204;2022-10-28T14:05:14;34.63;;;18.17;;
10007;SDS011;5043;41.766;26.204;2022-10-28T14:07:58;10.82;;;7.13;;
10007;SDS011;5043;41.766;26.204;2022-10-28T14:10:27;7.70;;;4.43;;
10007;SDS011;5043;41.766;26.204;2022-10-28T14:13:01;8.40;;;4.63;;
10007;SDS011;5043;41.766;26.204;2022-10-28T14:15:30;4.00;;;3.55;;
10007;SDS011;5043;41.766;26.204;2022-10-28T14:17:59;3.50;;;3.00;;
10007;SDS011;5043;41.766;26.204;2022-10-28T14:20:35;5.90;;;3.13;;
10007;SDS011;5043;41.766;26.204;2022-10-28T14:28:58;5.57;;;2.90;;
10007;SDS011;5043;41.766;26.204;2022-10-28T14:36:12;5.35;;;2.00;;
10007;SDS011;5043;41.766;26.204;2022-10-28T14:50:20;4.20;;;2.90;;
10007;SDS011;5043;41.766;26.204;2022-10-28T14:52:49;6.95;;;3.30;;
10007;SDS011;5043;41.766;26.204;2022-10-28T14:55:26;5.57;;;2.50;;
10007;SDS011;5043;41.766;26.204;2022-10-28T14:58:10;3.95;;;3.20;;
10007;SDS011;5043;41.766;26.204;2022-10-28T15:00:40;5.47;;;2.78;;
10007;SDS011;5043;41.766;26.204;2022-10-28T15:03:13;6.68;;;3.72;;
10007;SDS011;5043;41.766;26.204;2022-10-28T15:05:39;7.75;;;3.35;;
10007;SDS011;5043;41.766;26.204;2022-10-28T15:08:04;11.00;;;3.15;;
10007;SDS011;5043;41.766;26.204;2022-10-28T15:10:31;4.65;;;3.42;;
10007;SDS011;5043;41.766;26.204;2022-10-28T15:12:58;5.60;;;3.40;;
10007;SDS011;5043;41.766;26.204;2022-10-28T15:15:25;5.03;;;2.75;;
10007;SDS011;5043;41.766;26.204;2022-10-28T15:17:55;7.78;;;3.58;;
10007;SDS011;5043;41.766;26.204;2022-10-28T15:20:31;6.40;;;4.18;;
10007;SDS011;5043;41.766;26.204;2022-10-28T15:23:12;7.93;;;4.28;;
10007;SDS011;5043;41.766;26.204;2022-10-28T15:25:42;6.65;;;4.35;;
10007;SDS011;5043;41.766;26.204;2022-10-28T15:28:10;14.23;;;5.45;;
10007;SDS011;5043;41.766;26.204;2022-10-28T15:30:40;12.80;;;5.13;;
10007;SDS011;5043;41.766;26.204;2022-10-28T15:33:16;8.32;;;3.90;;
10007;SDS011;5043;41.766;26.204;2022-10-28T15:35:53;6.75;;;3.35;;
10007;SDS011;5043;41.766;26.204;2022-10-28T15:38:42;3.45;;;2.63;;
10007;SDS011;5043;41.766;26.204;2022-10-28T15:41:26;8.50;;;2.97;;
10007;SDS011;5043;41.766;26.204;2022-10-28T15:44:23;3.50;;;2.42;;
10007;SDS011;5043;41.766;26.204;2022-10-28T15:46:56;5.88;;;4.07;;
10007;SDS011;5043;41.766;26.204;2022-10-28T15:54:41;10.02;;;4.55;;
10007;SDS011;5043;41.766;26.204;2022-10-28T15:57:21;9.93;;;4.80;;
10007;SDS011;5043;41.766;26.204;2022-10-28T16:00:10;10.90;;;5.25;;
10007;SDS011;5043;41.766;26.204;2022-10-28T16:03:04;13.93;;;6.22;;
10007;SDS011;5043;41.766;26.204;2022-10-28T16:08:45;9.50;;;4.78;;
10007;SDS011;5043;41.766;26.204;2022-10-28T16:11:02;13.25;;;5.32;;
10007;SDS011;5043;41.766;26.204;2022-10-28T16:13:34;7.60;;;3.63;;
10007;SDS011;5043;41.766;26.204;2022-10-28T16:16:08;6.68;;;3.47;;
10007;SDS011;5043;41.766;26.204;2022-10-28T16:18:40;7.65;;;3.78;;
10007;SDS011;5043;41.766;26.204;2022-10-28T16:21:09;10.60;;;4.85;;
10007;SDS011;5043;41.766;26.204;2022-10-28T16:23:42;24.52;;;8.32;;
10007;SDS011;5043;41.766;26.204;2022-10-28T16:26:15;48.33;;;26.75;;
10007;SDS011;5043;41.766;26.204;2022-10-28T16:28:40;83.43;;;47.65;;
10007;SDS011;5043;41.766;26.204;2022-10-28T16:31:07;116.85;;;72.38;;
10007;SDS011;5043;41.766;26.204;2022-10-28T16:33:38;90.90;;;54.65;;
10007;SDS011;5043;41.766;26.204;2022-10-28T16:36:04;86.18;;;48.35;;
10007;SDS011;5043;41.766;26.204;2022-10-28T16:38:29;103.63;;;64.80;;
10007;SDS011;5043;41.766;26.204;2022-10-28T16:40:56;113.75;;;68.45;;
10007;SDS011;5043;41.766;26.204;2022-10-28T16:43:23;100.07;;;62.67;;
10007;SDS011;5043;41.766;26.204;2022-10-28T16:45:51;78.25;;;50.80;;
10007;SDS011;5043;41.766;26.204;2022-10-28T16:48:18;64.13;;;42.75;;
10007;SDS011;5043;41.766;26.204;2022-10-28T16:50:52;62.30;;;43.03;;
10007;SDS011;5043;41.766;26.204;2022-10-28T16:53:21;62.72;;;42.05;;
10007;SDS011;5043;41.766;26.204;2022-10-28T16:55:46;57.92;;;40.30;;
10007;SDS011;5043;41.766;26.204;2022-10-28T16:58:12;40.33;;;29.98;;
10007;SDS011;5043;41.766;26.204;2022-10-28T17:00:37;39.97;;;26.55;;
10007;SDS011;5043;41.766;26.204;2022-10-28T17:03:03;48.33;;;31.92;;
10007;SDS011;5043;41.766;26.204;2022-10-28T17:05:29;87.75;;;53.40;;
10007;SDS011;5043;41.766;26.204;2022-10-28T17:07:55;30.95;;;19.50;;
10007;SDS011;5043;41.766;26.204;2022-10-28T17:10:22;23.52;;;13.63;;
10007;SDS011;5043;41.766;26.204;2022-10-28T17:12:48;29.27;;;18.70;;
10007;SDS011;5043;41.766;26.204;2022-10-28T17:15:14;18.58;;;12.32;;
10007;SDS011;5043;41.766;26.204;2022-10-28T17:17:40;19.65;;;12.15;;
10007;SDS011;5043;41.766;26.204;2022-10-28T17:20:05;13.70;;;8.98;;
10007;SDS011;5043;41.766;26.204;2022-10-28T17:22:31;12.52;;;7.03;;
10007;SDS011;5043;41.766;26.204;2022-10-28T17:24:57;8.82;;;5.80;;
10007;SDS011;5043;41.766;26.204;2022-10-28T17:27:22;7.80;;;4.95;;
10007;SDS011;5043;41.766;26.204;2022-10-28T17:29:48;5.80;;;4.13;;
10007;SDS011;5043;41.766;26.204;2022-10-28T17:32:13;11.50;;;7.82;;
10007;SDS011;5043;41.766;26.204;2022-10-28T17:34:39;11.02;;;6.38;;
10007;SDS011;5043;41.766;26.204;2022-10-28T17:37:04;68.82;;;33.55;;
10007;SDS011;5043;41.766;26.204;2022-10-28T17:39:31;36.17;;;18.30;;
10007;SDS011;5043;41.766;26.204;2022-10-28T17:41:57;25.85;;;12.25;;
10007;SDS011;5043;41.766;26.204;2022-10-28T17:44:23;20.13;;;7.93;;